This is the latest recevied weather packets stored in our database for station/object SP6FIG-13. If no packets are shown the sender has not sent any weather packets the latest 10 day(s).
| Time | Temp. | Humidity | Pressure | Rain* | Wind** | Luminosity | Snow |
|---|---|---|---|---|---|---|---|
| 1777964067 | 21.67° C | 40% | 1009.9 hPa | - | - | - | - |
| 1777963767 | 21.67° C | 40% | 1010 hPa | - | - | - | - |
| 1777963467 | 21.67° C | 40% | 1010.1 hPa | - | - | - | - |
| 1777963167 | 21.67° C | 41% | 1009.9 hPa | - | - | - | - |
| 1777962867 | 21.67° C | 41% | 1009.9 hPa | - | - | - | - |
| 1777962567 | 21.67° C | 41% | 1010 hPa | - | - | - | - |
| 1777962267 | 21.67° C | 41% | 1009.7 hPa | - | - | - | - |
| 1777961967 | 21.11° C | 41% | 1010 hPa | - | - | - | - |
| 1777961667 | 21.11° C | 41% | 1010.1 hPa | - | - | - | - |
| 1777961367 | 21.11° C | 41% | 1010 hPa | - | - | - | - |
| 1777961067 | 21.11° C | 39% | 1010.1 hPa | - | - | - | - |
| 1777960767 | 21.11° C | 39% | 1010.2 hPa | - | - | - | - |
| 1777960467 | 21.11° C | 40% | 1008.3 hPa | - | - | - | - |
| 1777960167 | 20° C | 41% | 1013.5 hPa | - | - | - | - |
| 1777959867 | 21.67° C | 40% | 1010 hPa | - | - | - | - |
| 1777959567 | 21.67° C | 40% | 1010.5 hPa | - | - | - | - |
| 1777959266 | 22.22° C | 41% | 1009.7 hPa | - | - | - | - |
| 1777958966 | 22.22° C | 41% | 1009.6 hPa | - | - | - | - |
| 1777958667 | 22.22° C | 40% | 1010.1 hPa | - | - | - | - |
| 1777958367 | 22.22° C | 40% | 1010.4 hPa | - | - | - | - |
| 1777958066 | 22.22° C | 40% | 1010.7 hPa | - | - | - | - |
| 1777957767 | 22.78° C | 39% | 1010.9 hPa | - | - | - | - |
| 1777957466 | 23.33° C | 41% | 1009.9 hPa | - | - | - | - |
| 1777957166 | 23.33° C | 41% | 1010.1 hPa | - | - | - | - |
| 1777956867 | 23.33° C | 41% | 1009.9 hPa | - | - | - | - |
* Rain since midnight (hover to see other rain measurements)
** Current wind speed in m/s (hover to see current wind gust speed)